Hanford, CA

6:08 AM PST on February 12, 2016 (GMT -0800)
Hanford Municipal | | Change Station
CLOSE
Current Station
Airport
Location: Hanford,
Elevation: 243 ft
Nearby Weather Stations

Elev 243 ft 36.32 °N, 119.63 °W | Updated 15 minutes ago

Fog
Fog
44 °F
Feels Like 44 °F
N
0
Wind Variable Wind from North

Today
High -- | Low -- °F
--% Chance of Precip.
Yesterday
High -- | Low -- °F
Precip. -- in
Pressure 30.21 in
Visibility 0.2 miles
Clouds
Dew Point 43 °F
Humidity 96%
Rainfall 0.00 in
Snow Depth Not available.
6:49 AM 5:36 PM
Waxing Crescent, 21% visible
METAR KHJO 121353Z AUTO 00000KT M1/4SM FG VV001 07/06 A3020 RMK AO2 SLP228 T00670061
Pressure 30.21 in
Visibility 0.2 miles
Clouds
Dew Point 43 °F
Humidity 96%
Rainfall 0.00 in
Snow Depth Not available.
6:49 AM 5:36 PM
Waxing Crescent, 21% visible
METAR KHJO 121353Z AUTO 00000KT M1/4SM FG VV001 07/06 A3020 RMK AO2 SLP228 T00670061

10-Day Weather Forecast

Almanac

Astronomy

Feb. 12, 2016 Rise Set
Actual Time
Civil Twilight
Nautical Twilight
Astronomical Twilight
Moon
Length of Visible Light
Length of Day
Tomorrow will be .
, % of the Moon is Illuminated

Today's Extremes

State Highs State Lows

Community

WunderPhotos

Upload Photos

1,892,313 photos uploaded!

WunderBlog® & News

Nearby

Air Quality

  Air Quality AQ Index Pollutant
Not available.

Snow Depth

Station Depth Elevation

Earthquake Activity

City Distance Mag. Time & Date
Minimum magnitude displayed is 2.5.

Coastal Water Temperatures

Place Temperature

Stations

Nearby Weather Stations

Station Location Temp. Windchill Dew Point Humidity Wind Precip. Elev Updated Type
                   

Watches & Warnings

There are currently no watches in effect.